Huvudsida
METAR-TAF:

METAR-TAF

Flygplatser :

Alpnach, Schweiz

latitud: 46-56-19N, longitud: 8-17-03E, höjd: 440 m

Aktuellt väderrapport

Denna rapport gjordes för 28 minuter sedan, klockan 14:20 UTC
Vind 15 kt från nordost, varierande mellan nord och ost
Temperatur 6°C
Fuktighet 75%
Tryck 1017 hPa
Sikt 10 km eller mer
Få moln på en höjd av 2600 ft
Mulet på en höjd av 3100 ft
lätta regnskurar

METAR: LSMA 291420Z AUTO 04015KT 010V080 9999NDV -SHRA FEW026 OVC031 06/02 Q1017 RMK

Tid: 16:48 (14:48 UTC)


TAF: saknas

Aktuella väderrapporter och prognoser från 4000 flygplatser (METAR- och TAF-rapporter).

De tillgängliga stationerna syns som gula och röda prickar på kartan.

För musen över prickarna för att se namnen på stationerna.

Klicka sedan för att få väderrapporter och prognoser.

För att ändra kartan: Klicka på de gröna knapparna med ett svart kors på för att zooma in; den gröna knappen med ett streck på för att zooma ut; eller på de gröna pilarna för angränsande kartor.


METAR-TAF: